createdAt,value
2023-01-31T00:00:10.538Z,1020.76
2023-01-31T00:01:10.503Z,1020.79
2023-01-31T00:02:11.487Z,1020.73
2023-01-31T00:03:10.492Z,1020.76
2023-01-31T00:04:10.472Z,1020.80
2023-01-31T00:05:10.465Z,1020.77
2023-01-31T00:06:10.478Z,1020.80
2023-01-31T00:07:10.426Z,1020.72
2023-01-31T00:08:10.432Z,1020.76
2023-01-31T00:09:10.406Z,1020.80
2023-01-31T00:10:10.437Z,1020.81
2023-01-31T00:11:10.379Z,1020.77
2023-01-31T00:12:10.375Z,1020.76
2023-01-31T00:13:10.355Z,1020.73
2023-01-31T00:14:10.358Z,1020.71
2023-01-31T00:15:10.334Z,1020.78
2023-01-31T00:16:10.422Z,1020.73
2023-01-31T00:17:10.319Z,1020.76
2023-01-31T00:18:10.312Z,1020.76
2023-01-31T00:19:10.292Z,1020.77
2023-01-31T00:20:10.321Z,1020.75
2023-01-31T00:21:10.269Z,1020.82
2023-01-31T00:22:10.301Z,1020.78
2023-01-31T00:23:10.252Z,1020.72
2023-01-31T00:24:10.240Z,1020.80
2023-01-31T00:25:10.218Z,1020.75
2023-01-31T00:26:10.221Z,1020.78
2023-01-31T00:27:10.212Z,1020.81
2023-01-31T00:28:10.242Z,1020.84
2023-01-31T00:29:10.194Z,1020.81
2023-01-31T00:30:10.179Z,1020.79
2023-01-31T00:31:10.189Z,1020.81
2023-01-31T00:32:10.239Z,1020.72
2023-01-31T00:33:10.141Z,1020.72
2023-01-31T00:34:10.157Z,1020.73
2023-01-31T00:35:10.111Z,1020.81
2023-01-31T00:36:10.109Z,1020.81
2023-01-31T00:37:10.098Z,1020.91
2023-01-31T00:38:11.038Z,1020.79
2023-01-31T00:39:10.111Z,1020.79
2023-01-31T00:40:10.070Z,1020.80
2023-01-31T00:41:10.056Z,1020.85
2023-01-31T00:42:10.046Z,1020.85
2023-01-31T00:43:10.027Z,1020.88
2023-01-31T00:44:10.039Z,1020.89
2023-01-31T00:45:10.020Z,1020.91
2023-01-31T00:46:10.025Z,1020.89
2023-01-31T00:47:09.989Z,1020.88
2023-01-31T00:48:09.981Z,1020.93
2023-01-31T00:49:09.970Z,1020.93
2023-01-31T00:50:09.988Z,1020.91
2023-01-31T00:51:09.957Z,1020.92
2023-01-31T00:52:09.973Z,1020.92
2023-01-31T00:53:09.914Z,1020.97
2023-01-31T00:54:09.916Z,1020.92
2023-01-31T00:55:09.914Z,1020.94
2023-01-31T00:56:09.896Z,1020.83
2023-01-31T00:57:09.894Z,1020.90
2023-01-31T00:58:09.864Z,1020.91
2023-01-31T00:59:09.868Z,1020.94
2023-01-31T01:00:09.858Z,1020.90
2023-01-31T01:01:09.899Z,1020.88
2023-01-31T01:02:09.914Z,1020.90
2023-01-31T01:03:09.808Z,1020.93
2023-01-31T01:04:09.809Z,1020.95
2023-01-31T01:05:09.807Z,1020.90
2023-01-31T01:06:09.804Z,1020.90
2023-01-31T01:07:09.772Z,1020.91
2023-01-31T01:08:09.801Z,1020.90
2023-01-31T01:09:09.751Z,1020.91
2023-01-31T01:10:09.736Z,1020.98
2023-01-31T01:11:09.725Z,1020.97
2023-01-31T01:12:09.733Z,1021.00
2023-01-31T01:13:09.719Z,1021.04
2023-01-31T01:14:09.691Z,1021.06
2023-01-31T01:15:09.677Z,1020.98
2023-01-31T01:16:09.683Z,1020.98
2023-01-31T01:17:09.671Z,1021.01
2023-01-31T01:18:09.636Z,1021.03
2023-01-31T01:19:09.654Z,1020.99
2023-01-31T01:20:09.665Z,1020.97
2023-01-31T01:21:09.652Z,1020.96
2023-01-31T01:22:09.633Z,1021.02
2023-01-31T01:23:09.601Z,1021.01
2023-01-31T01:24:09.595Z,1021.02
2023-01-31T01:25:09.586Z,1020.95
2023-01-31T01:26:09.561Z,1020.91
2023-01-31T01:27:09.548Z,1020.90
2023-01-31T01:28:09.567Z,1020.91
2023-01-31T01:29:09.558Z,1020.91
2023-01-31T01:30:09.513Z,1020.84
2023-01-31T01:31:09.605Z,1020.89
2023-01-31T01:32:09.553Z,1020.86
2023-01-31T01:33:09.494Z,1020.87
2023-01-31T01:34:09.498Z,1020.90
2023-01-31T01:35:09.471Z,1020.91
2023-01-31T01:36:09.445Z,1020.89
2023-01-31T01:37:09.435Z,1020.79
2023-01-31T01:38:09.420Z,1020.76
2023-01-31T01:39:09.473Z,1020.74
2023-01-31T01:40:09.402Z,1020.79
2023-01-31T01:41:09.406Z,1020.75
2023-01-31T01:42:09.383Z,1020.75
2023-01-31T01:43:09.375Z,1020.80
2023-01-31T01:44:09.363Z,1020.71
2023-01-31T01:45:09.417Z,1020.71
2023-01-31T01:46:09.355Z,1020.73
2023-01-31T01:47:09.345Z,1020.72
2023-01-31T01:48:09.325Z,1020.72
2023-01-31T01:49:09.306Z,1020.64
2023-01-31T01:50:09.370Z,1020.76
2023-01-31T01:51:09.321Z,1020.70
2023-01-31T01:52:09.275Z,1020.70
2023-01-31T01:53:09.261Z,1020.71
2023-01-31T01:54:09.269Z,1020.71
2023-01-31T01:55:09.243Z,1020.65
2023-01-31T01:56:09.225Z,1020.66
2023-01-31T01:57:09.253Z,1020.70
2023-01-31T01:58:09.203Z,1020.70
2023-01-31T01:59:09.195Z,1020.79
2023-01-31T02:00:11.358Z,1020.81
2023-01-31T02:01:09.254Z,1020.79
2023-01-31T02:02:09.186Z,1020.82
2023-01-31T02:03:09.147Z,1020.77
2023-01-31T02:04:09.137Z,1020.73
2023-01-31T02:05:09.154Z,1020.81
2023-01-31T02:06:09.186Z,1020.78
2023-01-31T02:07:09.131Z,1020.76
2023-01-31T02:08:09.095Z,1020.79
2023-01-31T02:09:09.087Z,1020.74
2023-01-31T02:10:09.103Z,1020.78
2023-01-31T02:11:09.076Z,1020.84
2023-01-31T02:12:09.056Z,1020.77
2023-01-31T02:13:09.048Z,1020.80
2023-01-31T02:14:09.042Z,1020.75
2023-01-31T02:15:09.090Z,1020.74
2023-01-31T02:16:09.143Z,1020.80
2023-01-31T02:17:09.062Z,1020.88
2023-01-31T02:18:08.998Z,1020.75
2023-01-31T02:19:08.999Z,1020.79
2023-01-31T02:20:08.991Z,1020.80
2023-01-31T02:21:09.008Z,1020.81
2023-01-31T02:22:08.960Z,1020.86
2023-01-31T02:23:09.037Z,1020.88
2023-01-31T02:24:08.931Z,1020.87
2023-01-31T02:25:08.944Z,1020.96
2023-01-31T02:26:08.910Z,1020.94
2023-01-31T02:27:08.923Z,1020.95
2023-01-31T02:28:08.881Z,1020.96
2023-01-31T02:29:08.872Z,1020.91
2023-01-31T02:30:08.890Z,1020.92
2023-01-31T02:31:08.898Z,1020.92
2023-01-31T02:32:10.723Z,1020.90
2023-01-31T02:33:08.832Z,1020.97
2023-01-31T02:34:08.823Z,1020.89
2023-01-31T02:35:08.840Z,1020.93
2023-01-31T02:36:08.815Z,1020.95
2023-01-31T02:37:08.787Z,1020.96
2023-01-31T02:38:08.768Z,1020.90
2023-01-31T02:39:08.780Z,1020.91
2023-01-31T02:40:08.872Z,1020.88
2023-01-31T02:41:08.764Z,1020.91
2023-01-31T02:42:08.915Z,1020.90
2023-01-31T02:43:08.713Z,1020.94
2023-01-31T02:44:08.701Z,1020.92
2023-01-31T02:45:08.733Z,1020.90
2023-01-31T02:46:08.737Z,1020.92
2023-01-31T02:47:08.694Z,1020.92
2023-01-31T02:48:08.663Z,1020.92
2023-01-31T02:49:08.663Z,1020.93
2023-01-31T02:50:08.691Z,1020.90
2023-01-31T02:51:08.636Z,1020.88
2023-01-31T02:52:08.626Z,1020.92
2023-01-31T02:53:08.630Z,1020.83
2023-01-31T02:54:08.605Z,1020.85
2023-01-31T02:55:08.695Z,1020.81
2023-01-31T02:56:08.574Z,1020.83
2023-01-31T02:57:08.598Z,1020.82
2023-01-31T02:58:08.564Z,1020.91
2023-01-31T02:59:08.546Z,1020.82
2023-01-31T03:00:08.547Z,1020.76
2023-01-31T03:01:08.557Z,1020.82
2023-01-31T03:02:08.548Z,1020.81
2023-01-31T03:03:08.751Z,1020.86
2023-01-31T03:04:08.522Z,1020.83
2023-01-31T03:05:08.500Z,1020.79
2023-01-31T03:06:08.467Z,1020.82
2023-01-31T03:07:08.494Z,1020.75
2023-01-31T03:08:08.468Z,1020.74
2023-01-31T03:09:08.450Z,1020.75
2023-01-31T03:10:08.508Z,1020.80
2023-01-31T03:11:08.423Z,1020.84
2023-01-31T03:12:08.421Z,1020.76
2023-01-31T03:13:08.417Z,1020.77
2023-01-31T03:14:08.418Z,1020.75
2023-01-31T03:15:08.380Z,1020.75
2023-01-31T03:16:08.359Z,1020.77
2023-01-31T03:17:08.388Z,1020.77
2023-01-31T03:18:08.348Z,1020.68
2023-01-31T03:19:08.352Z,1020.63
2023-01-31T03:20:08.337Z,1020.67
2023-01-31T03:21:08.325Z,1020.62
2023-01-31T03:22:08.295Z,1020.64
2023-01-31T03:23:08.325Z,1020.60
2023-01-31T03:24:08.279Z,1020.61
2023-01-31T03:25:08.339Z,1020.57
2023-01-31T03:26:08.305Z,1020.60
2023-01-31T03:27:08.264Z,1020.57
2023-01-31T03:28:08.237Z,1020.51
2023-01-31T03:29:08.225Z,1020.43
2023-01-31T03:30:08.211Z,1020.45
2023-01-31T03:31:08.302Z,1020.47
2023-01-31T03:32:08.209Z,1020.55
2023-01-31T03:33:08.176Z,1020.50
2023-01-31T03:34:08.166Z,1020.57
2023-01-31T03:35:08.163Z,1020.57
2023-01-31T03:36:08.141Z,1020.53
2023-01-31T03:37:08.168Z,1020.50
2023-01-31T03:38:08.119Z,1020.50
2023-01-31T03:39:08.113Z,1020.47
2023-01-31T03:40:08.102Z,1020.47
2023-01-31T03:41:08.082Z,1020.49
2023-01-31T03:42:08.095Z,1020.46
2023-01-31T03:43:08.080Z,1020.42
2023-01-31T03:44:08.066Z,1020.47
2023-01-31T03:45:08.054Z,1020.46
2023-01-31T03:46:08.060Z,1020.43
2023-01-31T03:47:08.057Z,1020.42
2023-01-31T03:48:08.015Z,1020.39
2023-01-31T03:49:07.994Z,1020.40
2023-01-31T03:50:07.996Z,1020.35
2023-01-31T03:51:08.008Z,1020.36
2023-01-31T03:52:08.007Z,1020.33
2023-01-31T03:53:07.972Z,1020.32
2023-01-31T03:54:07.966Z,1020.37
2023-01-31T03:55:07.940Z,1020.32
2023-01-31T03:56:07.919Z,1020.29
2023-01-31T03:57:07.950Z,1020.35
2023-01-31T03:58:07.937Z,1020.25
2023-01-31T03:59:07.891Z,1020.28
2023-01-31T04:00:07.877Z,1020.33
2023-01-31T04:01:07.895Z,1020.31
2023-01-31T04:02:07.939Z,1020.23
2023-01-31T04:03:07.851Z,1020.24
2023-01-31T04:04:07.867Z,1020.17
2023-01-31T04:05:07.863Z,1020.14
2023-01-31T04:06:07.837Z,1020.17
2023-01-31T04:07:07.817Z,1020.13
2023-01-31T04:08:07.930Z,1020.10
2023-01-31T04:09:07.821Z,1020.13
2023-01-31T04:10:07.788Z,1020.13
2023-01-31T04:11:08.170Z,1020.10
2023-01-31T04:12:08.341Z,1020.01
2023-01-31T04:13:07.728Z,1020.02
2023-01-31T04:14:07.739Z,1020.05
2023-01-31T04:15:07.713Z,1020.04
2023-01-31T04:16:07.790Z,1020.01
2023-01-31T04:17:07.704Z,1020.01
2023-01-31T04:18:07.692Z,1019.95
2023-01-31T04:19:07.714Z,1019.98
2023-01-31T04:20:07.675Z,1020.05
2023-01-31T04:21:07.653Z,1020.12
2023-01-31T04:22:07.666Z,1020.10
2023-01-31T04:23:08.398Z,1020.06
2023-01-31T04:24:07.616Z,1020.08
2023-01-31T04:25:07.605Z,1020.04
2023-01-31T04:26:07.655Z,1020.08
2023-01-31T04:27:07.855Z,1020.11
2023-01-31T04:28:07.581Z,1020.13
2023-01-31T04:29:07.573Z,1020.00
2023-01-31T04:30:07.552Z,1020.02
2023-01-31T04:31:07.636Z,1020.04
2023-01-31T04:32:07.578Z,1020.11
2023-01-31T04:33:07.533Z,1020.08
2023-01-31T04:34:07.936Z,1020.06
2023-01-31T04:35:07.514Z,1020.02
2023-01-31T04:36:07.491Z,1020.09
2023-01-31T04:37:07.504Z,1020.14
2023-01-31T04:38:07.471Z,1020.15
2023-01-31T04:39:07.475Z,1020.21
2023-01-31T04:40:07.472Z,1020.17
2023-01-31T04:41:07.473Z,1020.15
2023-01-31T04:42:07.415Z,1020.08
2023-01-31T04:43:07.412Z,1020.15
2023-01-31T04:44:07.406Z,1020.12
2023-01-31T04:45:07.997Z,1020.14
2023-01-31T04:46:07.804Z,1020.16
2023-01-31T04:47:07.792Z,1020.13
2023-01-31T04:48:07.789Z,1020.13
2023-01-31T04:49:07.681Z,1020.09
2023-01-31T04:50:07.644Z,1020.18
2023-01-31T04:51:08.597Z,1020.15
2023-01-31T04:52:07.444Z,1020.16
2023-01-31T04:53:07.305Z,1020.19
2023-01-31T04:54:07.301Z,1020.19
2023-01-31T04:55:07.272Z,1020.06
2023-01-31T04:56:07.289Z,1020.03
2023-01-31T04:57:07.804Z,1020.08
2023-01-31T04:58:07.642Z,1020.04
2023-01-31T04:59:07.546Z,1020.00
2023-01-31T05:00:07.584Z,1019.92
2023-01-31T05:01:07.500Z,1019.98
2023-01-31T05:02:08.434Z,1019.99
2023-01-31T05:03:07.430Z,1019.95
2023-01-31T05:04:07.182Z,1019.93
2023-01-31T05:05:07.213Z,1019.95
2023-01-31T05:06:07.168Z,1019.96
2023-01-31T05:07:07.149Z,1019.94
2023-01-31T05:08:08.602Z,1019.90
2023-01-31T05:09:07.592Z,1019.94
2023-01-31T05:10:07.712Z,1019.96
2023-01-31T05:11:07.552Z,1019.95
2023-01-31T05:12:07.399Z,1019.93
2023-01-31T05:13:07.429Z,1019.94
2023-01-31T05:14:07.114Z,1019.94
2023-01-31T05:15:07.136Z,1019.84
2023-01-31T05:16:07.097Z,1019.91
2023-01-31T05:17:07.054Z,1019.89
2023-01-31T05:18:07.025Z,1019.88
2023-01-31T05:19:07.027Z,1019.90
2023-01-31T05:20:07.013Z,1019.86
2023-01-31T05:21:07.038Z,1019.86
2023-01-31T05:22:07.084Z,1019.89
2023-01-31T05:23:06.981Z,1019.91
2023-01-31T05:24:06.994Z,1019.88
2023-01-31T05:25:06.961Z,1019.87
2023-01-31T05:26:07.092Z,1019.83
2023-01-31T05:27:12.181Z,1019.79
2023-01-31T05:28:12.131Z,1019.78
2023-01-31T05:29:06.910Z,1019.84
2023-01-31T05:30:06.931Z,1019.85
2023-01-31T05:31:07.117Z,1019.81
2023-01-31T05:32:07.458Z,1019.73
2023-01-31T05:33:07.696Z,1019.77
2023-01-31T05:34:06.869Z,1019.78
2023-01-31T05:35:06.870Z,1019.79
2023-01-31T05:36:06.843Z,1019.71
2023-01-31T05:37:07.181Z,1019.76
2023-01-31T05:38:06.967Z,1019.70
2023-01-31T05:39:06.946Z,1019.68
2023-01-31T05:40:06.808Z,1019.63
2023-01-31T05:41:06.792Z,1019.67
2023-01-31T05:42:06.779Z,1019.70
2023-01-31T05:43:06.767Z,1019.64
2023-01-31T05:44:06.777Z,1019.62
2023-01-31T05:45:06.838Z,1019.62
2023-01-31T05:46:06.815Z,1019.60
2023-01-31T05:47:06.738Z,1019.58
2023-01-31T05:48:06.719Z,1019.63
2023-01-31T05:49:06.721Z,1019.56
2023-01-31T05:50:06.697Z,1019.57
2023-01-31T05:51:06.708Z,1019.51
2023-01-31T05:52:06.690Z,1019.52
2023-01-31T05:53:06.649Z,1019.55
2023-01-31T05:54:06.661Z,1019.52
2023-01-31T05:55:06.667Z,1019.53
2023-01-31T05:56:06.646Z,1019.47
2023-01-31T05:57:06.645Z,1019.50
2023-01-31T05:58:06.633Z,1019.48
2023-01-31T05:59:06.595Z,1019.47
2023-01-31T06:00:06.579Z,1019.30
2023-01-31T06:01:06.597Z,1019.38
2023-01-31T06:02:06.599Z,1019.35
2023-01-31T06:03:06.580Z,1019.39
2023-01-31T06:04:06.553Z,1019.30
2023-01-31T06:05:06.519Z,1019.28
2023-01-31T06:06:07.479Z,1019.28
2023-01-31T06:07:06.601Z,1019.21
2023-01-31T06:08:06.584Z,1019.25
2023-01-31T06:09:06.510Z,1019.25
2023-01-31T06:10:06.471Z,1019.17
2023-01-31T06:11:06.455Z,1019.30
2023-01-31T06:12:06.453Z,1019.35
2023-01-31T06:13:06.491Z,1019.30
2023-01-31T06:14:07.414Z,1019.35
2023-01-31T06:15:06.419Z,1019.38
2023-01-31T06:16:06.455Z,1019.33
2023-01-31T06:17:06.394Z,1019.35
2023-01-31T06:18:06.391Z,1019.40
2023-01-31T06:19:06.390Z,1019.37
2023-01-31T06:20:06.380Z,1019.41
2023-01-31T06:21:06.417Z,1019.47
2023-01-31T06:22:06.332Z,1019.48
2023-01-31T06:23:06.330Z,1019.44
2023-01-31T06:24:06.327Z,1019.41
2023-01-31T06:25:06.333Z,1019.45
2023-01-31T06:26:06.310Z,1019.46
2023-01-31T06:27:06.277Z,1019.48
2023-01-31T06:28:06.280Z,1019.52
2023-01-31T06:29:06.243Z,1019.49
2023-01-31T06:30:06.243Z,1019.45
2023-01-31T06:31:06.294Z,1019.49
2023-01-31T06:32:06.248Z,1019.35
2023-01-31T06:33:06.214Z,1019.42
2023-01-31T06:34:06.236Z,1019.46
2023-01-31T06:35:06.195Z,1019.41
2023-01-31T06:36:06.215Z,1019.45
2023-01-31T06:37:06.175Z,1019.52
2023-01-31T06:38:06.159Z,1019.47
2023-01-31T06:39:06.149Z,1019.50
2023-01-31T06:40:07.012Z,1019.46
2023-01-31T06:41:06.135Z,1019.47
2023-01-31T06:42:06.143Z,1019.41
2023-01-31T06:43:06.102Z,1019.39
2023-01-31T06:44:06.131Z,1019.34
2023-01-31T06:45:06.142Z,1019.40
2023-01-31T06:46:06.115Z,1019.30
2023-01-31T06:47:06.089Z,1019.37
2023-01-31T06:48:06.067Z,1019.35
2023-01-31T06:49:06.032Z,1019.39
2023-01-31T06:50:06.031Z,1019.42
2023-01-31T06:51:06.015Z,1019.44
2023-01-31T06:52:06.024Z,1019.48
2023-01-31T06:53:06.377Z,1019.39
2023-01-31T06:54:05.992Z,1019.46
2023-01-31T06:55:05.969Z,1019.43
2023-01-31T06:56:05.963Z,1019.50
2023-01-31T06:57:05.999Z,1019.45
2023-01-31T06:58:05.942Z,1019.51
2023-01-31T06:59:05.939Z,1019.50
2023-01-31T07:00:05.923Z,1019.55
2023-01-31T07:01:05.908Z,1019.62
2023-01-31T07:02:05.904Z,1019.50
2023-01-31T07:03:05.909Z,1019.57
2023-01-31T07:04:05.889Z,1019.59
2023-01-31T07:05:05.853Z,1019.48
2023-01-31T07:06:05.864Z,1019.53
2023-01-31T07:07:05.870Z,1019.45
2023-01-31T07:08:05.860Z,1019.43
2023-01-31T07:09:05.866Z,1019.51
2023-01-31T07:10:05.812Z,1019.41
2023-01-31T07:11:05.817Z,1019.39
2023-01-31T07:12:05.800Z,1019.35
2023-01-31T07:13:05.771Z,1019.46
2023-01-31T07:14:05.808Z,1019.45
2023-01-31T07:15:05.765Z,1019.45
2023-01-31T07:16:05.792Z,1019.46
2023-01-31T07:17:05.732Z,1019.55
2023-01-31T07:18:05.726Z,1019.49
2023-01-31T07:19:05.709Z,1019.46
2023-01-31T07:20:05.723Z,1019.44
2023-01-31T07:21:05.683Z,1019.32
2023-01-31T07:22:05.675Z,1019.30
2023-01-31T07:23:05.681Z,1019.28
2023-01-31T07:24:06.090Z,1019.33
2023-01-31T07:25:05.650Z,1019.37
2023-01-31T07:26:05.652Z,1019.40
2023-01-31T07:27:05.672Z,1019.34
2023-01-31T07:28:05.616Z,1019.27
2023-01-31T07:29:07.090Z,1019.26
2023-01-31T07:30:05.607Z,1019.22
2023-01-31T07:31:05.648Z,1019.29
2023-01-31T07:32:05.583Z,1019.32
2023-01-31T07:33:05.565Z,1019.38
2023-01-31T07:34:05.559Z,1019.38
2023-01-31T07:35:05.741Z,1019.34
2023-01-31T07:36:05.564Z,1019.44
2023-01-31T07:37:05.551Z,1019.40
2023-01-31T07:38:05.523Z,1019.33
2023-01-31T07:39:05.489Z,1019.35
2023-01-31T07:40:05.569Z,1019.35
2023-01-31T07:41:05.481Z,1019.27
2023-01-31T07:42:05.496Z,1019.27
2023-01-31T07:43:05.449Z,1019.28
2023-01-31T07:44:05.458Z,1019.24
2023-01-31T07:45:21.950Z,1019.22
2023-01-31T07:46:06.478Z,1019.19
2023-01-31T07:47:05.403Z,1019.18
2023-01-31T07:48:06.285Z,1019.16
2023-01-31T07:49:05.379Z,1019.15
2023-01-31T07:50:05.368Z,1019.16
2023-01-31T07:51:05.356Z,1019.09
2023-01-31T07:52:06.919Z,1019.11
2023-01-31T07:53:05.420Z,1019.02
2023-01-31T07:54:05.330Z,1019.07
2023-01-31T07:55:05.308Z,1019.02
2023-01-31T07:56:05.309Z,1019.01
2023-01-31T07:57:05.299Z,1018.96
2023-01-31T07:58:05.286Z,1018.95
2023-01-31T07:59:05.290Z,1019.05
2023-01-31T08:00:05.271Z,1019.00
2023-01-31T08:01:05.251Z,1019.00
2023-01-31T08:02:05.266Z,1019.05
2023-01-31T08:03:05.225Z,1019.04
2023-01-31T08:04:20.047Z,1019.02
2023-01-31T08:05:06.217Z,1018.97
2023-01-31T08:06:05.211Z,1019.07
2023-01-31T08:07:05.180Z,1019.02
2023-01-31T08:08:05.172Z,1019.03
2023-01-31T08:09:05.153Z,1019.01
2023-01-31T08:10:05.161Z,1019.05
2023-01-31T08:11:05.135Z,1018.99
2023-01-31T08:12:05.372Z,1019.02
2023-01-31T08:13:05.121Z,1018.99
2023-01-31T08:14:05.133Z,1018.93
2023-01-31T08:15:05.126Z,1018.94
2023-01-31T08:16:05.119Z,1018.99
2023-01-31T08:17:05.073Z,1019.00
2023-01-31T08:18:06.382Z,1018.94
2023-01-31T08:19:05.063Z,1018.94
2023-01-31T08:20:05.077Z,1018.93
2023-01-31T08:21:05.016Z,1018.83
2023-01-31T08:22:05.014Z,1018.85
2023-01-31T08:23:05.018Z,1018.90
2023-01-31T08:24:05.000Z,1018.91
2023-01-31T08:25:04.999Z,1018.91
2023-01-31T08:26:05.135Z,1018.84
2023-01-31T08:27:04.967Z,1018.88
2023-01-31T08:28:05.570Z,1018.76
2023-01-31T08:29:04.936Z,1018.79
2023-01-31T08:30:04.926Z,1018.81
2023-01-31T08:31:08.913Z,1018.89
2023-01-31T08:32:04.950Z,1018.89
2023-01-31T08:33:04.944Z,1018.90
2023-01-31T08:34:05.423Z,1018.85
2023-01-31T08:35:04.930Z,1018.90
2023-01-31T08:36:04.883Z,1018.94
2023-01-31T08:37:05.492Z,1018.90
2023-01-31T08:38:16.104Z,1018.88
2023-01-31T08:39:05.905Z,1018.92
2023-01-31T08:40:05.776Z,1018.88
2023-01-31T08:41:04.806Z,1018.90
2023-01-31T08:42:04.808Z,1018.83
2023-01-31T08:43:04.790Z,1018.87
2023-01-31T08:44:05.107Z,1018.80
2023-01-31T08:45:04.801Z,1018.80
2023-01-31T08:46:04.760Z,1018.77
2023-01-31T08:47:04.742Z,1018.81
2023-01-31T08:48:04.743Z,1018.79
2023-01-31T08:49:04.734Z,1018.75
2023-01-31T08:50:06.527Z,1018.79
2023-01-31T08:51:04.700Z,1018.78
2023-01-31T08:52:04.692Z,1018.70
2023-01-31T08:53:04.687Z,1018.69
2023-01-31T08:54:04.658Z,1018.63
2023-01-31T08:55:04.673Z,1018.61
2023-01-31T08:56:06.935Z,1018.63
2023-01-31T08:57:04.612Z,1018.63
2023-01-31T08:58:04.638Z,1018.64
2023-01-31T08:59:04.606Z,1018.60
2023-01-31T09:00:04.610Z,1018.55
2023-01-31T09:01:04.580Z,1018.54
2023-01-31T09:02:04.582Z,1018.48
2023-01-31T09:03:04.639Z,1018.46
2023-01-31T09:04:04.544Z,1018.47
2023-01-31T09:05:04.636Z,1018.47
2023-01-31T09:06:04.589Z,1018.47
2023-01-31T09:07:04.555Z,1018.44
2023-01-31T09:08:04.540Z,1018.40
2023-01-31T09:09:05.452Z,1018.33
2023-01-31T09:10:05.446Z,1018.29
2023-01-31T09:11:04.489Z,1018.34
2023-01-31T09:12:06.150Z,1018.35
2023-01-31T09:13:04.468Z,1018.33
2023-01-31T09:14:04.450Z,1018.35
2023-01-31T09:15:04.432Z,1018.37
2023-01-31T09:16:04.425Z,1018.41
2023-01-31T09:17:06.348Z,1018.40
2023-01-31T09:18:04.405Z,1018.37
2023-01-31T09:19:04.379Z,1018.40
2023-01-31T09:20:04.469Z,1018.40
2023-01-31T09:21:04.357Z,1018.36
2023-01-31T09:22:04.361Z,1018.32
2023-01-31T09:23:04.337Z,1018.35
2023-01-31T09:24:04.341Z,1018.29
2023-01-31T09:25:04.305Z,1018.31
2023-01-31T09:26:04.341Z,1018.41
2023-01-31T09:27:04.289Z,1018.40
2023-01-31T09:28:04.282Z,1018.33
2023-01-31T09:29:04.312Z,1018.37
2023-01-31T09:30:04.289Z,1018.35
2023-01-31T09:31:04.340Z,1018.28
2023-01-31T09:32:04.246Z,1018.30
2023-01-31T09:33:04.219Z,1018.25
2023-01-31T09:34:04.227Z,1018.28
2023-01-31T09:35:04.231Z,1018.30
2023-01-31T09:36:04.188Z,1018.28
2023-01-31T09:37:04.167Z,1018.31
2023-01-31T09:38:04.190Z,1018.28
2023-01-31T09:39:04.179Z,1018.32
2023-01-31T09:40:04.189Z,1018.29
2023-01-31T09:41:04.136Z,1018.30
2023-01-31T09:42:04.187Z,1018.25
2023-01-31T09:43:04.115Z,1018.26
2023-01-31T09:44:04.108Z,1018.25
2023-01-31T09:45:04.094Z,1018.19
2023-01-31T09:46:04.097Z,1018.17
2023-01-31T09:47:04.071Z,1018.18
2023-01-31T09:48:04.057Z,1018.12
2023-01-31T09:49:04.070Z,1018.22
2023-01-31T09:50:04.020Z,1018.24
2023-01-31T09:51:04.039Z,1018.21
2023-01-31T09:52:04.061Z,1018.21
2023-01-31T09:53:04.028Z,1018.17
2023-01-31T09:54:04.008Z,1018.19
2023-01-31T09:55:03.996Z,1018.21
2023-01-31T09:56:04.005Z,1018.15
2023-01-31T09:57:04.922Z,1018.20
2023-01-31T09:58:03.942Z,1018.17
2023-01-31T09:59:03.933Z,1018.13
2023-01-31T10:00:03.931Z,1018.08
2023-01-31T10:01:04.070Z,1018.00
2023-01-31T10:02:03.932Z,1018.04
2023-01-31T10:03:03.993Z,1018.08
2023-01-31T10:04:03.902Z,1018.09
2023-01-31T10:05:03.883Z,1018.08
2023-01-31T10:06:03.944Z,1018.13
2023-01-31T10:07:03.896Z,1018.05
2023-01-31T10:08:03.879Z,1018.02
2023-01-31T10:09:03.826Z,1018.04
2023-01-31T10:10:03.808Z,1017.91
2023-01-31T10:11:05.269Z,1017.99
2023-01-31T10:12:03.796Z,1017.93
2023-01-31T10:13:03.785Z,1018.00
2023-01-31T10:14:03.795Z,1017.98
2023-01-31T10:15:03.780Z,1017.99
2023-01-31T10:16:03.745Z,1017.85
2023-01-31T10:17:03.788Z,1017.83
2023-01-31T10:18:03.730Z,1017.81
2023-01-31T10:19:03.720Z,1017.72
2023-01-31T10:20:03.707Z,1017.63
2023-01-31T10:21:05.303Z,1017.74
2023-01-31T10:22:03.675Z,1017.69
2023-01-31T10:23:03.707Z,1017.61
2023-01-31T10:24:03.657Z,1017.60
2023-01-31T10:25:03.685Z,1017.68
2023-01-31T10:26:03.636Z,1017.66
2023-01-31T10:27:03.619Z,1017.60
2023-01-31T10:28:03.656Z,1017.55
2023-01-31T10:29:03.627Z,1017.55
2023-01-31T10:30:03.612Z,1017.59
2023-01-31T10:31:03.627Z,1017.57
2023-01-31T10:32:04.369Z,1017.54
2023-01-31T10:33:03.558Z,1017.52
2023-01-31T10:34:03.559Z,1017.56
2023-01-31T10:35:04.493Z,1017.60
2023-01-31T10:36:03.830Z,1017.46
2023-01-31T10:37:03.519Z,1017.43
2023-01-31T10:38:03.495Z,1017.47
2023-01-31T10:39:03.525Z,1017.45
2023-01-31T10:40:03.486Z,1017.46
2023-01-31T10:41:03.483Z,1017.41
2023-01-31T10:42:03.482Z,1017.53
2023-01-31T10:43:03.917Z,1017.51
2023-01-31T10:44:03.435Z,1017.45
2023-01-31T10:45:03.435Z,1017.46
2023-01-31T10:46:04.420Z,1017.62
2023-01-31T10:47:03.433Z,1017.48
2023-01-31T10:48:04.351Z,1017.43
2023-01-31T10:49:03.384Z,1017.51
2023-01-31T10:50:04.201Z,1017.43
2023-01-31T10:51:03.353Z,1017.43
2023-01-31T10:52:03.343Z,1017.46
2023-01-31T10:53:03.396Z,1017.51
2023-01-31T10:54:03.333Z,1017.49
2023-01-31T10:55:03.427Z,1017.42
2023-01-31T10:56:03.335Z,1017.42
2023-01-31T10:57:03.305Z,1017.42
2023-01-31T10:58:05.274Z,1017.44
2023-01-31T10:59:03.294Z,1017.46
2023-01-31T11:00:03.274Z,1017.55
2023-01-31T11:01:03.451Z,1017.57
2023-01-31T11:02:03.281Z,1017.55
2023-01-31T11:03:03.263Z,1017.44
2023-01-31T11:04:03.249Z,1017.41
2023-01-31T11:05:03.220Z,1017.42
2023-01-31T11:06:03.270Z,1017.35
2023-01-31T11:07:03.215Z,1017.47
2023-01-31T11:08:03.717Z,1017.44
2023-01-31T11:09:03.190Z,1017.44
2023-01-31T11:10:03.148Z,1017.43
2023-01-31T11:11:03.139Z,1017.44
2023-01-31T11:12:03.171Z,1017.47
2023-01-31T11:13:03.160Z,1017.34
2023-01-31T11:14:03.130Z,1017.37
2023-01-31T11:15:05.104Z,1017.35
2023-01-31T11:16:03.088Z,1017.25
2023-01-31T11:17:03.131Z,1017.27
2023-01-31T11:18:03.070Z,1017.22
2023-01-31T11:19:03.061Z,1017.24
2023-01-31T11:20:03.072Z,1017.24
2023-01-31T11:21:03.065Z,1017.16
2023-01-31T11:22:03.142Z,1017.07
2023-01-31T11:23:03.195Z,1017.18
2023-01-31T11:24:03.097Z,1017.09
2023-01-31T11:25:03.077Z,1017.06
2023-01-31T11:26:04.435Z,1017.05
2023-01-31T11:27:02.973Z,1017.14
2023-01-31T11:28:02.974Z,1017.13
2023-01-31T11:29:03.548Z,1017.12
2023-01-31T11:30:02.974Z,1017.06
2023-01-31T11:31:03.005Z,1017.00
2023-01-31T11:32:03.032Z,1017.06
2023-01-31T11:33:02.911Z,1017.11
2023-01-31T11:34:04.352Z,1017.00
2023-01-31T11:35:04.342Z,1017.09
2023-01-31T11:36:02.902Z,1017.03
2023-01-31T11:37:03.599Z,1017.06
2023-01-31T11:38:03.456Z,1017.08
2023-01-31T11:39:03.326Z,1017.05
2023-01-31T11:40:02.825Z,1017.11
2023-01-31T11:41:02.818Z,1017.08
2023-01-31T16:56:29.686Z,1016.94
2023-01-31T16:57:29.615Z,1016.85
2023-01-31T16:58:29.659Z,1016.97
2023-01-31T16:59:30.081Z,1017.00
2023-01-31T17:00:29.597Z,1017.05
2023-01-31T17:01:29.641Z,1017.04
2023-01-31T17:02:30.557Z,1017.06
2023-01-31T17:03:29.554Z,1016.98
2023-01-31T17:04:29.547Z,1016.99
2023-01-31T17:05:29.561Z,1017.02
2023-01-31T17:06:29.547Z,1017.12
2023-01-31T17:07:29.584Z,1017.17
2023-01-31T17:08:29.503Z,1017.15
2023-01-31T17:09:29.519Z,1017.04
2023-01-31T17:10:29.494Z,1017.18
2023-01-31T17:11:42.300Z,1017.24
2023-01-31T17:12:30.471Z,1017.29
2023-01-31T17:13:29.439Z,1017.24
2023-01-31T17:14:29.490Z,1017.14
2023-01-31T17:15:29.513Z,1017.07
2023-01-31T17:16:29.404Z,1017.18
2023-01-31T17:17:29.401Z,1017.14
2023-01-31T17:18:29.458Z,1017.21
2023-01-31T17:19:29.455Z,1017.21